createdAt,value
2022-10-19T00:00:15.849Z,70.69
2022-10-19T00:02:46.241Z,70.72
2022-10-19T00:05:19.438Z,70.78
2022-10-19T00:07:53.167Z,70.79
2022-10-19T00:10:26.920Z,70.67
2022-10-19T00:12:56.523Z,70.53
2022-10-19T00:15:29.172Z,70.22
2022-10-19T00:17:57.791Z,70.03
2022-10-19T00:20:38.583Z,69.90
2022-10-19T00:23:10.855Z,69.74
2022-10-19T00:25:42.088Z,69.33
2022-10-19T00:28:20.469Z,69.48
2022-10-19T00:33:20.422Z,69.72
2022-10-19T00:35:51.836Z,69.70
2022-10-19T00:38:20.343Z,69.79
2022-10-19T00:40:48.084Z,69.76
2022-10-19T00:43:18.500Z,69.67
2022-10-19T00:45:45.720Z,69.58
2022-10-19T00:48:15.718Z,69.67
2022-10-19T00:50:43.938Z,69.71
2022-10-19T00:53:11.639Z,69.85
2022-10-19T00:55:39.804Z,69.88
2022-10-19T00:58:07.355Z,69.92
2022-10-19T01:00:34.675Z,69.77
2022-10-19T01:03:03.093Z,69.86
2022-10-19T01:05:32.224Z,69.86
2022-10-19T01:07:59.874Z,69.88
2022-10-19T01:10:36.963Z,69.65
2022-10-19T01:13:29.326Z,69.65
2022-10-19T01:16:08.892Z,69.62
2022-10-19T01:18:39.748Z,69.50
2022-10-19T01:21:13.297Z,69.92
2022-10-19T01:24:02.725Z,70.04
2022-10-19T01:26:42.451Z,70.12
2022-10-19T01:29:22.430Z,70.12
2022-10-19T01:32:05.715Z,70.34
2022-10-19T01:34:48.206Z,70.31
2022-10-19T01:37:25.091Z,70.41
2022-10-19T01:40:04.583Z,70.61
2022-10-19T01:42:35.455Z,70.78
2022-10-19T01:45:08.932Z,70.86
2022-10-19T01:47:45.539Z,70.81
2022-10-19T01:50:16.110Z,70.88
2022-10-19T01:52:43.589Z,70.99
2022-10-19T01:55:12.700Z,70.93
2022-10-19T01:57:42.728Z,70.95
2022-10-19T02:00:12.020Z,70.81
2022-10-19T02:02:41.946Z,70.69
2022-10-19T02:05:11.325Z,70.55
2022-10-19T02:07:40.888Z,70.56
2022-10-19T02:10:08.818Z,70.60
2022-10-19T02:12:36.998Z,70.77
2022-10-19T02:15:08.148Z,70.61
2022-10-19T02:17:38.790Z,70.77
2022-10-19T02:20:06.306Z,70.67
2022-10-19T02:22:33.972Z,70.52
2022-10-19T02:25:02.862Z,70.49
2022-10-19T02:27:30.262Z,70.46
2022-10-19T02:29:57.451Z,70.30
2022-10-19T02:32:26.209Z,70.39
2022-10-19T02:34:53.407Z,70.45
2022-10-19T02:37:23.355Z,70.39
2022-10-19T02:39:49.782Z,70.18
2022-10-19T02:42:28.595Z,70.31
2022-10-19T02:44:58.170Z,70.30
2022-10-19T02:47:28.807Z,70.41
2022-10-19T02:49:56.240Z,70.55
2022-10-19T02:52:23.419Z,70.75
2022-10-19T02:54:50.574Z,70.67
2022-10-19T02:57:23.582Z,70.65
2022-10-19T02:59:51.638Z,70.73
2022-10-19T03:02:20.341Z,70.77
2022-10-19T03:07:16.426Z,70.66
2022-10-19T03:09:44.111Z,70.75
2022-10-19T03:12:12.852Z,70.73
2022-10-19T03:14:39.998Z,70.65
2022-10-19T03:17:07.221Z,70.58
2022-10-19T03:19:35.300Z,70.41
2022-10-19T03:22:03.146Z,70.30
2022-10-19T03:24:31.629Z,70.22
2022-10-19T03:26:58.852Z,70.09
2022-10-19T03:29:26.437Z,70.14
2022-10-19T03:31:53.577Z,70.14
2022-10-19T03:34:20.680Z,70.16
2022-10-19T03:36:47.829Z,70.00
2022-10-19T03:39:16.260Z,69.87
2022-10-19T03:41:44.228Z,70.04
2022-10-19T03:44:12.015Z,70.07
2022-10-19T03:46:40.006Z,69.95
2022-10-19T03:49:08.819Z,69.88
2022-10-19T03:51:36.417Z,69.89
2022-10-19T03:54:06.690Z,70.08
2022-10-19T03:56:35.021Z,69.95
2022-10-19T03:59:04.316Z,70.08
2022-10-19T04:01:34.700Z,70.10
2022-10-19T04:04:05.084Z,70.17
2022-10-19T04:06:35.087Z,70.28
2022-10-19T04:09:02.888Z,70.44
2022-10-19T04:11:31.097Z,70.48
2022-10-19T04:13:59.147Z,70.53
2022-10-19T04:16:28.567Z,70.62
2022-10-19T04:18:55.940Z,70.64
2022-10-19T04:21:26.851Z,70.56
2022-10-19T04:24:05.588Z,70.61
2022-10-19T04:26:33.876Z,70.82
2022-10-19T04:29:01.724Z,70.85
2022-10-19T04:31:29.334Z,70.98
2022-10-19T04:33:56.783Z,71.01
2022-10-19T04:36:23.978Z,71.17
2022-10-19T04:38:51.680Z,71.12
2022-10-19T04:41:20.847Z,71.44
2022-10-19T04:43:49.247Z,71.45
2022-10-19T04:46:18.672Z,71.68
2022-10-19T04:48:47.292Z,71.72
2022-10-19T04:51:15.779Z,71.61
2022-10-19T04:53:43.648Z,71.70
2022-10-19T04:56:17.571Z,71.62
2022-10-19T04:58:44.629Z,71.62
2022-10-19T05:01:15.070Z,71.45
2022-10-19T05:03:42.510Z,71.37
2022-10-19T05:06:10.295Z,71.47
2022-10-19T05:08:37.894Z,71.44
2022-10-19T05:11:07.533Z,71.59
2022-10-19T05:13:35.122Z,71.76
2022-10-19T05:16:04.702Z,71.85
2022-10-19T05:18:32.107Z,71.91
2022-10-19T05:21:10.647Z,71.80
2022-10-19T05:23:38.231Z,71.86
2022-10-19T05:26:07.421Z,71.96
2022-10-19T05:28:35.504Z,71.86
2022-10-19T05:31:14.728Z,72.12
2022-10-19T05:33:43.277Z,72.31
2022-10-19T05:36:14.083Z,72.74
2022-10-19T05:38:41.997Z,72.80
2022-10-19T05:41:09.225Z,73.07
2022-10-19T05:43:36.489Z,73.13
2022-10-19T05:46:08.297Z,73.44
2022-10-19T05:48:36.130Z,73.52
2022-10-19T05:51:04.808Z,73.59
2022-10-19T05:53:32.754Z,73.83
2022-10-19T05:55:59.960Z,73.85
2022-10-19T05:58:27.158Z,73.80
2022-10-19T06:00:55.336Z,73.94
2022-10-19T06:03:23.170Z,73.95
2022-10-19T06:05:50.943Z,73.92
2022-10-19T06:08:19.132Z,73.91
2022-10-19T06:10:46.671Z,73.90
2022-10-19T06:13:15.031Z,73.78
2022-10-19T06:15:42.410Z,73.54
2022-10-19T06:18:11.460Z,73.33
2022-10-19T06:20:40.339Z,73.17
2022-10-19T06:23:08.434Z,73.21
2022-10-19T06:25:36.878Z,72.89
2022-10-19T06:28:04.418Z,72.96
2022-10-19T06:30:32.128Z,72.75
2022-10-19T06:32:59.776Z,72.63
2022-10-19T06:35:27.258Z,72.40
2022-10-19T06:37:57.054Z,71.98
2022-10-19T06:40:24.981Z,71.94
2022-10-19T06:42:52.200Z,71.67
2022-10-19T06:45:19.292Z,71.33
2022-10-19T06:50:14.545Z,71.27
2022-10-19T06:52:41.627Z,71.14
2022-10-19T06:55:09.125Z,71.10
2022-10-19T06:57:36.593Z,71.25
2022-10-19T07:00:08.301Z,70.68
2022-10-19T07:05:06.123Z,70.30
2022-10-19T07:07:31.308Z,70.11
2022-10-19T07:09:58.722Z,70.23
2022-10-19T07:12:26.017Z,70.37
2022-10-19T07:14:55.030Z,70.47
2022-10-19T07:17:22.182Z,70.61
2022-10-19T07:19:49.331Z,70.47
2022-10-19T07:22:21.223Z,70.48
2022-10-19T07:24:45.412Z,69.76
2022-10-19T07:27:13.135Z,69.44
2022-10-19T07:29:40.150Z,69.79
2022-10-19T07:32:07.313Z,69.64
2022-10-19T07:34:34.474Z,69.66
2022-10-19T07:37:01.828Z,69.53
2022-10-19T07:39:29.136Z,70.06
2022-10-19T07:41:56.335Z,69.82
2022-10-19T07:44:23.889Z,69.09
2022-10-19T07:46:51.218Z,69.36
2022-10-19T07:49:19.468Z,69.58
2022-10-19T07:51:46.804Z,69.27
2022-10-19T07:54:14.149Z,69.79
2022-10-19T07:56:41.090Z,70.01
2022-10-19T07:59:09.697Z,70.16
2022-10-19T08:01:40.821Z,70.47
2022-10-19T08:06:37.754Z,72.33
2022-10-19T08:09:05.524Z,72.42
2022-10-19T08:11:34.365Z,72.49
2022-10-19T08:14:04.919Z,72.55
2022-10-19T08:16:39.694Z,72.83
2022-10-19T08:19:09.461Z,72.98
2022-10-19T08:21:39.088Z,72.79
2022-10-19T08:24:06.573Z,72.78
2022-10-19T08:26:37.165Z,73.10
2022-10-19T08:29:10.176Z,73.28
2022-10-19T08:31:37.747Z,73.28
2022-10-19T08:34:05.167Z,72.87
2022-10-19T08:36:34.239Z,72.73
2022-10-19T08:39:03.231Z,72.81
2022-10-19T08:41:59.782Z,72.70
2022-10-19T08:44:39.730Z,72.93
2022-10-19T08:47:30.593Z,72.63
2022-10-19T08:49:58.976Z,72.64
2022-10-19T08:52:34.212Z,72.42
2022-10-19T08:55:05.608Z,72.06
2022-10-19T08:57:42.182Z,71.74
2022-10-19T09:00:41.776Z,71.00
2022-10-19T09:03:37.648Z,71.12
2022-10-19T09:06:14.345Z,71.24
2022-10-19T09:08:41.677Z,71.39
2022-10-19T09:11:10.245Z,71.38
2022-10-19T09:14:04.123Z,71.49
2022-10-19T09:16:17.694Z,72.19
2022-10-19T09:18:46.661Z,71.81
2022-10-19T09:21:20.413Z,71.66
2022-10-19T09:24:03.504Z,71.51
2022-10-19T09:26:36.531Z,71.89
2022-10-19T09:29:23.861Z,72.01
2022-10-19T09:31:53.435Z,71.83
2022-10-19T09:34:26.992Z,71.68
2022-10-19T09:36:56.936Z,71.67
2022-10-19T09:39:28.680Z,71.83
2022-10-19T09:41:58.872Z,72.08
2022-10-19T09:44:26.844Z,72.42
2022-10-19T09:47:31.597Z,72.50
2022-10-19T09:50:08.607Z,72.73
2022-10-19T09:52:40.051Z,72.68
2022-10-19T09:55:16.794Z,72.75
2022-10-19T09:57:46.560Z,72.30
2022-10-19T10:00:19.843Z,72.48
2022-10-19T10:02:54.778Z,72.36
2022-10-19T10:05:31.060Z,72.45
2022-10-19T10:07:58.051Z,72.11
2022-10-19T10:10:30.594Z,71.18
2022-10-19T10:12:58.864Z,71.28
2022-10-19T10:15:28.994Z,71.32
2022-10-19T10:17:57.476Z,71.00
2022-10-19T10:20:31.855Z,70.64
2022-10-19T10:23:02.687Z,69.93
2022-10-19T10:25:32.894Z,69.45
2022-10-19T10:28:09.711Z,69.33
2022-10-19T10:30:37.441Z,69.35
2022-10-19T10:33:13.449Z,69.69
2022-10-19T10:35:35.277Z,69.51
2022-10-19T10:38:14.364Z,69.08
2022-10-19T10:41:03.603Z,69.11
2022-10-19T10:43:33.054Z,69.01
2022-10-19T10:46:03.891Z,69.35
2022-10-19T10:48:39.971Z,69.13
2022-10-19T10:51:19.979Z,68.87
2022-10-19T10:53:47.486Z,68.67
2022-10-19T10:56:26.559Z,67.81
2022-10-19T10:59:05.279Z,67.99
2022-10-19T11:01:40.983Z,67.61
2022-10-19T11:04:14.092Z,68.12
2022-10-19T11:06:51.173Z,68.65
2022-10-19T11:09:24.776Z,68.34
2022-10-19T11:11:55.331Z,68.83
2022-10-19T11:14:29.348Z,69.22
2022-10-19T11:16:59.417Z,68.72
2022-10-19T11:19:35.648Z,68.72
2022-10-19T11:22:35.695Z,68.42
2022-10-19T11:25:33.044Z,68.19
2022-10-19T11:28:28.526Z,68.66
2022-10-19T11:30:59.563Z,68.73
2022-10-19T11:33:47.468Z,68.95
2022-10-19T11:36:27.001Z,69.29
2022-10-19T11:39:04.121Z,69.14
2022-10-19T11:41:47.390Z,69.25
2022-10-19T11:44:33.555Z,69.15
2022-10-19T11:47:30.375Z,68.91
2022-10-19T11:50:10.400Z,69.04
2022-10-19T11:53:02.551Z,69.23
2022-10-19T11:55:51.723Z,68.71
2022-10-19T11:58:41.038Z,68.83
2022-10-19T12:01:30.453Z,69.14
2022-10-19T12:04:22.917Z,69.12
2022-10-19T12:07:02.386Z,68.95
2022-10-19T12:09:36.152Z,67.82
2022-10-19T12:12:16.139Z,68.21
2022-10-19T12:14:46.249Z,68.15
2022-10-19T12:17:22.479Z,68.24
2022-10-19T12:19:53.688Z,66.77
2022-10-19T12:22:26.606Z,67.64
2022-10-19T12:24:55.302Z,67.77
2022-10-19T12:27:38.891Z,67.72
2022-10-19T12:30:21.239Z,67.60
2022-10-19T12:32:58.292Z,67.13
2022-10-19T12:35:35.647Z,67.60
2022-10-19T12:38:12.725Z,67.98
2022-10-19T12:40:46.265Z,68.11
2022-10-19T12:43:23.267Z,68.11
2022-10-19T12:46:09.342Z,68.28
2022-10-19T12:48:38.343Z,68.64
2022-10-19T12:51:10.423Z,68.75
2022-10-19T12:53:49.124Z,69.17
2022-10-19T12:56:22.986Z,69.00
2022-10-19T12:58:56.380Z,69.25
2022-10-19T13:01:36.429Z,69.13
2022-10-19T13:04:12.345Z,69.32
2022-10-19T13:07:01.101Z,69.33
2022-10-19T13:09:42.679Z,69.52
2022-10-19T13:12:21.431Z,69.41
2022-10-19T13:15:01.130Z,69.34
2022-10-19T13:17:42.936Z,69.22
2022-10-19T13:20:19.616Z,69.30
2022-10-19T13:22:50.469Z,69.43
2022-10-19T13:25:23.041Z,69.35
2022-10-19T13:28:02.442Z,69.51
2022-10-19T13:30:39.091Z,69.35
2022-10-19T13:33:28.464Z,69.46
2022-10-19T13:36:03.502Z,69.20
2022-10-19T13:38:39.537Z,69.36
2022-10-19T13:41:27.366Z,69.37
2022-10-19T13:44:16.491Z,69.19
2022-10-19T13:47:04.228Z,69.14
2022-10-19T13:49:40.979Z,69.03
2022-10-19T13:52:31.914Z,68.85
2022-10-19T13:55:22.757Z,68.98
2022-10-19T13:57:59.148Z,68.95
2022-10-19T14:00:30.071Z,68.88
2022-10-19T14:03:19.191Z,68.66
2022-10-19T14:05:56.065Z,68.93
2022-10-19T14:08:49.919Z,69.16
2022-10-19T14:11:20.172Z,69.01
2022-10-19T14:13:51.163Z,69.10
2022-10-19T14:16:21.962Z,68.94
2022-10-19T14:18:54.543Z,68.91
2022-10-19T14:21:33.086Z,68.92
2022-10-19T14:24:00.470Z,69.04
2022-10-19T14:26:30.309Z,69.76
2022-10-19T14:28:59.311Z,69.45
2022-10-19T14:31:34.763Z,68.97
2022-10-19T14:34:04.098Z,69.03
2022-10-19T14:36:34.806Z,69.22
2022-10-19T14:39:01.842Z,69.90
2022-10-19T14:41:32.367Z,70.40
2022-10-19T14:44:02.258Z,70.55
2022-10-19T14:46:31.354Z,70.57
2022-10-19T14:49:02.064Z,70.76
2022-10-19T14:51:48.260Z,70.81
2022-10-19T14:54:31.677Z,71.03
2022-10-19T14:57:05.073Z,71.33
2022-10-19T14:59:37.445Z,71.33
2022-10-19T15:02:11.350Z,71.52
2022-10-19T15:04:38.959Z,71.54
2022-10-19T15:07:15.777Z,71.58
2022-10-19T15:09:48.234Z,71.58
2022-10-19T15:12:17.923Z,71.62
2022-10-19T15:14:45.923Z,71.57
2022-10-19T15:17:28.306Z,71.59
2022-10-19T15:19:59.306Z,71.68
2022-10-19T15:22:36.945Z,71.70
2022-10-19T15:25:11.016Z,72.01
2022-10-19T15:27:44.638Z,71.91
2022-10-19T15:30:27.522Z,72.23
2022-10-19T15:33:01.649Z,72.18
2022-10-19T15:35:30.923Z,72.18
2022-10-19T15:38:08.866Z,72.57
2022-10-19T15:40:41.140Z,72.75
2022-10-19T15:43:34.961Z,72.90
2022-10-19T15:46:08.550Z,72.86
2022-10-19T15:48:46.530Z,72.81
2022-10-19T15:51:26.576Z,72.73
2022-10-19T15:53:59.607Z,72.91
2022-10-19T15:56:28.720Z,73.21
2022-10-19T15:59:01.490Z,73.00
2022-10-19T16:01:31.517Z,73.18
2022-10-19T16:03:59.165Z,73.21
2022-10-19T16:06:29.113Z,73.20
2022-10-19T16:08:58.024Z,73.09
2022-10-19T16:11:26.503Z,73.00
2022-10-19T16:13:53.849Z,72.89
2022-10-19T16:16:30.612Z,72.83
2022-10-19T16:18:58.528Z,72.92
2022-10-19T16:21:28.882Z,72.87
2022-10-19T16:23:56.622Z,73.04
2022-10-19T16:26:25.634Z,73.11
2022-10-19T16:28:54.474Z,73.17
2022-10-19T16:31:22.450Z,73.16
2022-10-19T16:33:49.565Z,73.15
2022-10-19T16:36:18.670Z,73.23
2022-10-19T16:38:46.825Z,73.36
2022-10-19T16:41:14.569Z,73.48
2022-10-19T16:43:41.907Z,73.49
2022-10-19T16:46:09.221Z,73.53
2022-10-19T16:48:37.870Z,73.59
2022-10-19T16:51:25.893Z,73.75
2022-10-19T16:53:56.727Z,73.77
2022-10-19T16:56:25.118Z,73.93
2022-10-19T16:58:54.730Z,73.99
2022-10-19T17:01:22.375Z,74.05
2022-10-19T17:03:49.554Z,74.32
2022-10-19T17:06:18.410Z,74.48
2022-10-19T17:09:29.926Z,74.72
2022-10-19T17:11:25.351Z,75.01
2022-10-19T17:13:54.458Z,75.01
2022-10-19T17:16:23.497Z,75.02
2022-10-19T17:18:52.802Z,75.12
2022-10-19T17:21:22.384Z,75.18
2022-10-19T17:23:52.110Z,75.23
2022-10-19T17:26:25.295Z,75.24
2022-10-19T17:28:53.035Z,75.35
2022-10-19T17:31:20.169Z,75.47
2022-10-19T17:33:49.133Z,75.56
2022-10-19T17:36:19.714Z,75.67
2022-10-19T17:38:47.017Z,75.59
2022-10-19T17:41:17.068Z,75.58
2022-10-19T17:43:45.985Z,75.19
2022-10-19T17:46:15.647Z,75.07
2022-10-19T17:48:43.727Z,75.33
2022-10-19T17:51:15.235Z,75.31
2022-10-19T17:53:43.654Z,75.44
2022-10-19T17:56:13.238Z,75.62
2022-10-19T17:58:40.655Z,75.86
2022-10-19T18:01:08.896Z,75.85
2022-10-19T18:03:37.531Z,75.74
2022-10-19T18:06:11.017Z,75.80
2022-10-19T18:08:41.867Z,75.81
2022-10-19T18:11:15.525Z,75.67
2022-10-19T18:13:42.907Z,75.34
2022-10-19T18:16:16.097Z,75.29
2022-10-19T18:18:45.732Z,75.05
2022-10-19T18:21:15.066Z,75.06
2022-10-19T18:23:42.712Z,75.05
2022-10-19T18:26:13.221Z,74.84
2022-10-19T18:28:41.471Z,74.82
2022-10-19T18:31:19.036Z,74.72
2022-10-19T18:33:49.189Z,74.11
2022-10-19T18:36:16.454Z,73.91
2022-10-19T18:38:43.719Z,73.77
2022-10-19T18:43:39.855Z,73.82
2022-10-19T18:46:07.778Z,73.85
2022-10-19T18:48:37.223Z,74.01
2022-10-19T18:51:06.941Z,74.22
2022-10-19T18:53:34.490Z,74.17
2022-10-19T18:56:07.310Z,74.08
2022-10-19T18:58:35.783Z,74.07
2022-10-19T19:01:05.235Z,73.94
2022-10-19T19:03:32.494Z,73.86
2022-10-19T19:06:01.293Z,73.80
2022-10-19T19:08:28.635Z,74.08
2022-10-19T19:10:56.664Z,74.19
2022-10-19T19:13:23.724Z,74.29
2022-10-19T19:15:58.369Z,74.55
2022-10-19T19:18:26.003Z,74.63
2022-10-19T19:20:53.320Z,74.62
2022-10-19T19:23:20.432Z,74.66
2022-10-19T19:25:47.759Z,74.71
2022-10-19T19:28:14.941Z,74.93
2022-10-19T19:30:44.315Z,74.98
2022-10-19T19:33:12.424Z,74.94
2022-10-19T19:35:46.833Z,75.00
2022-10-19T19:38:14.838Z,75.33
2022-10-19T19:40:44.565Z,75.28
2022-10-19T19:43:13.464Z,75.46
2022-10-19T19:45:41.676Z,75.50
2022-10-19T19:48:09.829Z,75.77
2022-10-19T19:50:37.868Z,75.72
2022-10-19T19:53:05.258Z,75.78
2022-10-19T19:55:38.183Z,75.63
2022-10-19T19:58:04.178Z,75.37
2022-10-19T20:00:31.401Z,75.19
2022-10-19T20:02:58.941Z,75.09
2022-10-19T20:05:26.414Z,75.06
2022-10-19T20:07:53.481Z,74.99
2022-10-19T20:10:20.733Z,75.08
2022-10-19T20:12:47.847Z,75.12
2022-10-19T20:15:16.599Z,75.00
2022-10-19T20:17:44.174Z,74.96
2022-10-19T20:20:12.425Z,74.87
2022-10-19T20:22:39.934Z,74.86
2022-10-19T20:25:07.558Z,74.71
2022-10-19T20:27:35.334Z,74.72
2022-10-19T20:30:03.461Z,74.70
2022-10-19T20:32:30.700Z,74.76
2022-10-19T20:34:58.083Z,74.67
2022-10-19T20:37:26.016Z,74.61
2022-10-19T20:39:53.014Z,74.64
2022-10-19T20:42:21.232Z,74.57
2022-10-19T20:44:48.834Z,74.58
2022-10-19T20:47:16.130Z,74.48
2022-10-19T20:49:43.217Z,74.37
2022-10-19T20:52:10.308Z,73.69
2022-10-19T20:54:37.426Z,73.52
2022-10-19T20:57:04.645Z,73.22
2022-10-19T20:59:32.914Z,72.93
2022-10-19T21:02:00.110Z,72.19
2022-10-19T21:04:27.316Z,72.26
2022-10-19T21:06:54.341Z,72.03
2022-10-19T21:09:23.450Z,71.74
2022-10-19T21:11:51.490Z,71.89
2022-10-19T21:14:27.091Z,71.90
2022-10-19T21:16:56.035Z,71.82
2022-10-19T21:19:24.842Z,71.25
2022-10-19T21:21:58.019Z,71.20
2022-10-19T21:24:28.835Z,71.01
2022-10-19T21:26:56.181Z,71.17
2022-10-19T21:29:23.176Z,70.96
2022-10-19T21:31:52.577Z,71.14
2022-10-19T21:34:23.462Z,71.02
2022-10-19T21:36:51.374Z,71.09
2022-10-19T21:39:19.192Z,71.14
2022-10-19T21:41:46.664Z,70.92
2022-10-19T21:44:15.240Z,70.68
2022-10-19T21:46:43.028Z,70.61
2022-10-19T21:49:11.776Z,70.75
2022-10-19T21:51:47.555Z,70.77
2022-10-19T21:54:17.117Z,70.57
2022-10-19T21:56:44.944Z,70.53
2022-10-19T21:59:12.422Z,70.43
2022-10-19T22:01:41.546Z,70.14
2022-10-19T22:04:12.023Z,69.01
2022-10-19T22:06:39.631Z,68.89
2022-10-19T22:09:09.490Z,68.99
2022-10-19T22:11:36.792Z,69.11
2022-10-19T22:14:04.645Z,69.35
2022-10-19T22:16:32.941Z,69.43
2022-10-19T22:19:00.493Z,69.32
2022-10-19T22:21:31.915Z,69.42
2022-10-19T22:24:04.819Z,69.47
2022-10-19T22:26:34.683Z,69.22
2022-10-19T22:29:03.599Z,69.08
2022-10-19T22:31:32.044Z,69.25
2022-10-19T22:34:08.503Z,68.86
2022-10-19T22:36:35.568Z,68.63
2022-10-19T22:39:03.012Z,68.39
2022-10-19T22:41:30.049Z,68.37
2022-10-19T22:43:57.150Z,68.34
2022-10-19T22:46:24.385Z,68.85
2022-10-19T22:48:51.395Z,69.17
2022-10-19T22:51:18.475Z,69.30
2022-10-19T22:53:45.450Z,69.34
2022-10-19T22:56:12.950Z,69.59
2022-10-19T22:58:39.954Z,69.62
2022-10-19T23:01:10.291Z,69.91
2022-10-19T23:03:40.519Z,70.09
2022-10-19T23:06:09.440Z,70.43
2022-10-19T23:08:36.868Z,70.65
2022-10-19T23:11:04.034Z,70.97
2022-10-19T23:13:31.065Z,71.10
2022-10-19T23:15:58.138Z,71.19
2022-10-19T23:18:25.195Z,71.14
2022-10-19T23:20:54.965Z,70.93
2022-10-19T23:23:22.431Z,71.09
2022-10-19T23:26:05.391Z,71.16
2022-10-19T23:28:33.875Z,71.38
2022-10-19T23:31:23.444Z,71.46
2022-10-19T23:33:51.246Z,71.59
2022-10-19T23:36:20.844Z,71.25
2022-10-19T23:38:49.628Z,71.00
2022-10-19T23:41:18.218Z,71.07
2022-10-19T23:43:45.491Z,70.96
2022-10-19T23:46:13.370Z,71.01
2022-10-19T23:48:41.412Z,71.14
2022-10-19T23:51:13.916Z,71.16
2022-10-19T23:53:42.315Z,71.43
2022-10-19T23:56:12.945Z,71.83
2022-10-19T23:58:40.464Z,71.47
